createdAt,value
2017-08-17T00:01:49.309Z,75.10
2017-08-17T00:04:17.052Z,74.70
2017-08-17T00:06:43.625Z,75.10
2017-08-17T00:09:10.333Z,75.90
2017-08-17T00:11:36.925Z,75.50
2017-08-17T00:14:03.369Z,75.10
2017-08-17T00:16:29.668Z,75.40
2017-08-17T00:18:55.991Z,74.50
2017-08-17T00:21:23.001Z,75.40
2017-08-17T00:23:50.717Z,74.30
2017-08-17T00:26:16.983Z,74.30
2017-08-17T00:28:43.951Z,74.00
2017-08-17T00:31:11.220Z,74.20
2017-08-17T00:33:38.485Z,74.40
2017-08-17T00:36:06.230Z,74.30
2017-08-17T00:38:32.927Z,74.30
2017-08-17T00:41:00.564Z,74.60
2017-08-17T00:43:28.157Z,74.50
2017-08-17T00:45:54.740Z,74.50
2017-08-17T00:48:21.048Z,75.40
2017-08-17T00:50:47.539Z,74.70
2017-08-17T00:53:14.607Z,74.70
2017-08-17T00:55:40.922Z,74.90
2017-08-17T00:58:08.879Z,76.00
2017-08-17T01:00:35.484Z,75.80
2017-08-17T01:03:02.423Z,75.70
2017-08-17T01:05:28.769Z,75.60
2017-08-17T01:07:55.563Z,75.20
2017-08-17T01:10:21.959Z,75.60
2017-08-17T01:12:48.688Z,75.10
2017-08-17T01:15:15.220Z,74.70
2017-08-17T01:17:41.974Z,74.70
2017-08-17T01:20:08.331Z,75.00
2017-08-17T01:25:28.436Z,75.30
2017-08-17T01:27:55.108Z,75.00
2017-08-17T01:30:22.338Z,75.70
2017-08-17T01:32:48.881Z,75.10
2017-08-17T01:35:15.278Z,75.70
2017-08-17T01:37:42.241Z,75.30
2017-08-17T01:40:08.633Z,75.60
2017-08-17T01:42:34.943Z,75.10
2017-08-17T01:45:01.324Z,75.30
2017-08-17T01:47:29.590Z,76.30
2017-08-17T01:49:56.552Z,75.70
2017-08-17T01:52:23.106Z,76.00
2017-08-17T01:54:49.449Z,76.10
2017-08-17T01:57:16.273Z,75.70
2017-08-17T01:59:44.176Z,76.00
2017-08-17T02:02:11.148Z,75.20
2017-08-17T02:04:38.400Z,75.60
2017-08-17T02:07:05.372Z,75.20
2017-08-17T02:09:31.684Z,75.10
2017-08-17T02:11:58.191Z,75.60
2017-08-17T02:14:24.472Z,75.80
2017-08-17T02:16:51.692Z,75.80
2017-08-17T02:19:18.228Z,75.90
2017-08-17T02:21:45.452Z,75.70
2017-08-17T02:24:12.459Z,76.00
2017-08-17T02:26:39.263Z,75.40
2017-08-17T02:29:05.767Z,76.10
2017-08-17T02:31:32.035Z,75.60
2017-08-17T02:33:58.291Z,75.70
2017-08-17T02:36:26.256Z,75.80
2017-08-17T02:38:53.551Z,75.70
2017-08-17T02:41:19.816Z,75.80
2017-08-17T02:43:47.499Z,77.10
2017-08-17T02:46:14.384Z,76.30
2017-08-17T02:48:40.646Z,76.30
2017-08-17T02:51:07.442Z,75.80
2017-08-17T02:53:34.714Z,76.20
2017-08-17T02:56:01.807Z,76.00
2017-08-17T02:58:28.716Z,76.00
2017-08-17T03:00:56.408Z,76.40
2017-08-17T03:03:23.590Z,77.30
2017-08-17T03:05:50.614Z,77.20
2017-08-17T03:08:18.608Z,76.80
2017-08-17T03:10:46.746Z,76.10
2017-08-17T03:13:13.966Z,76.20
2017-08-17T03:15:41.284Z,76.60
2017-08-17T03:18:09.042Z,76.50
2017-08-17T03:20:35.718Z,76.40
2017-08-17T03:23:03.616Z,76.10
2017-08-17T03:25:30.657Z,76.70
2017-08-17T03:27:57.208Z,76.70
2017-08-17T03:30:24.095Z,78.00
2017-08-17T03:32:51.833Z,77.90
2017-08-17T03:35:18.323Z,78.60
2017-08-17T03:37:45.716Z,77.80
2017-08-17T03:40:12.017Z,76.60
2017-08-17T03:42:39.226Z,76.50
2017-08-17T03:45:05.573Z,77.30
2017-08-17T03:47:32.166Z,76.80
2017-08-17T03:49:58.676Z,76.90
2017-08-17T03:52:27.004Z,76.70
2017-08-17T03:54:54.348Z,76.60
2017-08-17T03:57:20.913Z,77.10
2017-08-17T03:59:48.178Z,76.80
2017-08-17T04:02:14.833Z,76.50
2017-08-17T04:04:41.785Z,76.80
2017-08-17T04:07:09.299Z,78.20
2017-08-17T04:09:35.839Z,78.00
2017-08-17T04:12:03.761Z,77.50
2017-08-17T04:14:32.554Z,77.50
2017-08-17T04:17:01.354Z,76.90
2017-08-17T04:19:28.912Z,77.20
2017-08-17T04:21:55.338Z,76.70
2017-08-17T04:24:21.784Z,76.60
2017-08-17T04:26:49.741Z,76.70
2017-08-17T04:29:16.064Z,77.80
2017-08-17T04:31:44.296Z,77.80
2017-08-17T04:34:11.092Z,77.90
2017-08-17T04:36:37.864Z,77.70
2017-08-17T04:39:05.103Z,77.70
2017-08-17T04:41:31.459Z,77.90
2017-08-17T04:44:03.314Z,78.00
2017-08-17T04:46:29.619Z,78.70
2017-08-17T04:48:56.600Z,79.50
2017-08-17T04:51:23.034Z,79.40
2017-08-17T04:53:49.323Z,79.20
2017-08-17T04:56:51.425Z,78.80
2017-08-17T04:59:18.027Z,79.20
2017-08-17T05:01:45.332Z,78.20
2017-08-17T05:04:12.511Z,75.70
2017-08-17T05:06:39.175Z,75.70
2017-08-17T05:09:05.585Z,75.40
2017-08-17T05:11:32.432Z,75.00
2017-08-17T05:13:58.698Z,75.20
2017-08-17T05:16:25.954Z,76.20
2017-08-17T05:18:52.263Z,75.70
2017-08-17T05:21:19.487Z,75.70
2017-08-17T05:23:46.030Z,76.00
2017-08-17T05:26:14.494Z,74.10
2017-08-17T05:28:41.241Z,74.20
2017-08-17T05:31:07.500Z,73.20
2017-08-17T05:33:34.028Z,74.60
2017-08-17T05:36:00.560Z,74.10
2017-08-17T05:38:27.828Z,74.20
2017-08-17T05:40:54.443Z,72.80
2017-08-17T05:43:21.404Z,73.30
2017-08-17T05:45:48.921Z,72.70
2017-08-17T05:48:15.312Z,71.60
2017-08-17T05:50:42.208Z,67.20
2017-08-17T05:53:08.474Z,67.90
2017-08-17T05:55:34.754Z,68.80
2017-08-17T05:58:01.535Z,68.70
2017-08-17T06:00:29.052Z,68.30
2017-08-17T06:02:57.070Z,67.50
2017-08-17T06:05:23.608Z,67.40
2017-08-17T06:07:49.861Z,66.50
2017-08-17T06:10:16.860Z,65.40
2017-08-17T06:12:44.116Z,65.90
2017-08-17T06:15:11.355Z,66.20
2017-08-17T06:17:39.402Z,66.30
2017-08-17T06:20:07.671Z,58.80
2017-08-17T06:22:35.182Z,60.60
2017-08-17T06:25:01.474Z,60.40
2017-08-17T06:27:28.215Z,60.10
2017-08-17T06:29:56.240Z,59.30
2017-08-17T06:32:22.592Z,59.10
2017-08-17T06:34:49.574Z,60.70
2017-08-17T06:37:16.233Z,60.60
2017-08-17T06:39:43.511Z,61.00
2017-08-17T06:42:09.809Z,61.20
2017-08-17T06:44:36.689Z,62.90
2017-08-17T06:47:03.340Z,63.20
2017-08-17T06:49:31.284Z,62.80
2017-08-17T06:51:57.607Z,62.80
2017-08-17T06:54:24.866Z,62.80
2017-08-17T06:56:51.132Z,64.10
2017-08-17T06:59:17.417Z,64.70
2017-08-17T07:01:43.675Z,63.50
2017-08-17T07:04:11.543Z,61.40
2017-08-17T07:06:39.146Z,59.90
2017-08-17T07:09:05.608Z,59.80
2017-08-17T07:11:33.641Z,60.30
2017-08-17T07:14:00.981Z,60.30
2017-08-17T07:16:27.256Z,59.50
2017-08-17T07:18:53.507Z,59.10
2017-08-17T07:21:19.941Z,59.80
2017-08-17T07:23:46.902Z,59.10
2017-08-17T07:26:13.898Z,59.60
2017-08-17T07:28:40.670Z,59.00
2017-08-17T07:31:07.654Z,60.20
2017-08-17T07:33:34.344Z,59.10
2017-08-17T07:36:01.239Z,57.60
2017-08-17T07:38:28.534Z,58.00
2017-08-17T07:40:55.236Z,57.10
2017-08-17T07:43:21.528Z,57.60
2017-08-17T07:45:48.783Z,58.10
2017-08-17T07:48:15.833Z,54.60
2017-08-17T07:50:42.825Z,55.60
2017-08-17T07:53:09.698Z,55.60
2017-08-17T07:55:36.134Z,54.20
2017-08-17T07:58:03.294Z,52.50
2017-08-17T08:00:29.723Z,52.50
2017-08-17T08:02:56.006Z,52.20
2017-08-17T08:05:22.747Z,51.90
2017-08-17T08:07:49.117Z,50.90
2017-08-17T08:10:15.615Z,51.70
2017-08-17T08:12:42.036Z,52.50
2017-08-17T08:15:08.869Z,51.40
2017-08-17T08:17:35.670Z,50.50
2017-08-17T08:20:03.021Z,49.90
2017-08-17T08:22:30.512Z,49.90
2017-08-17T08:24:56.803Z,50.20
2017-08-17T08:27:24.062Z,48.70
2017-08-17T08:29:50.649Z,49.20
2017-08-17T08:32:16.885Z,50.10
2017-08-17T08:34:43.839Z,49.30
2017-08-17T08:37:10.660Z,48.20
2017-08-17T08:39:36.950Z,49.60
2017-08-17T08:42:04.040Z,50.10
2017-08-17T08:44:31.287Z,49.40
2017-08-17T08:46:57.567Z,48.80
2017-08-17T08:49:24.225Z,48.20
2017-08-17T08:51:51.291Z,47.90
2017-08-17T08:54:17.987Z,47.80
2017-08-17T08:56:44.292Z,48.10
2017-08-17T08:59:11.117Z,48.70
2017-08-17T09:01:38.111Z,49.00
2017-08-17T09:04:04.378Z,49.10
2017-08-17T09:06:30.724Z,48.70
2017-08-17T09:08:58.768Z,50.50
2017-08-17T09:11:25.123Z,50.30
2017-08-17T09:13:52.379Z,50.20
2017-08-17T09:16:18.692Z,49.70
2017-08-17T09:18:44.975Z,50.00
2017-08-17T09:21:11.875Z,50.60
2017-08-17T09:23:38.228Z,49.70
2017-08-17T09:26:04.567Z,50.30
2017-08-17T09:28:30.839Z,50.30
2017-08-17T09:30:57.862Z,51.60
2017-08-17T09:33:24.185Z,51.60
2017-08-17T09:35:50.970Z,51.60
2017-08-17T09:38:18.113Z,50.10
2017-08-17T09:40:45.720Z,50.60
2017-08-17T09:43:12.198Z,50.60
2017-08-17T09:45:39.689Z,49.30
2017-08-17T09:48:05.964Z,49.30
2017-08-17T09:50:32.974Z,49.40
2017-08-17T09:52:59.269Z,49.50
2017-08-17T09:55:25.996Z,49.60
2017-08-17T09:57:53.280Z,50.50
2017-08-17T10:00:19.997Z,50.20
2017-08-17T10:02:47.710Z,49.80
2017-08-17T10:05:14.063Z,49.80
2017-08-17T10:07:40.911Z,49.10
2017-08-17T10:10:07.981Z,48.60
2017-08-17T10:12:35.295Z,48.60
2017-08-17T10:15:02.869Z,48.60
2017-08-17T10:17:29.937Z,48.30
2017-08-17T10:19:57.124Z,48.30
2017-08-17T10:22:23.406Z,48.30
2017-08-17T10:24:51.393Z,48.80
2017-08-17T10:27:19.015Z,47.70
2017-08-17T10:29:47.032Z,48.50
2017-08-17T10:32:13.492Z,48.50
2017-08-17T10:34:40.586Z,47.50
2017-08-17T10:37:07.202Z,47.50
2017-08-17T10:39:34.411Z,46.60
2017-08-17T10:42:01.727Z,46.90
2017-08-17T10:44:28.010Z,45.70
2017-08-17T10:46:54.859Z,46.20
2017-08-17T10:49:21.116Z,46.20
2017-08-17T10:51:48.179Z,46.50
2017-08-17T10:54:14.474Z,46.50
2017-08-17T10:56:41.342Z,47.20
2017-08-17T10:59:08.876Z,45.90
2017-08-17T11:01:35.705Z,45.90
2017-08-17T11:04:02.974Z,46.20
2017-08-17T11:06:29.272Z,46.80
2017-08-17T11:08:56.355Z,46.80
2017-08-17T11:11:23.412Z,47.50
2017-08-17T11:13:50.364Z,47.50
2017-08-17T11:16:16.639Z,46.50
2017-08-17T11:18:42.923Z,46.30
2017-08-17T11:21:09.676Z,46.70
2017-08-17T11:23:36.733Z,47.40
2017-08-17T11:26:03.720Z,47.60
2017-08-17T11:28:31.027Z,47.60
2017-08-17T11:30:58.021Z,47.40
2017-08-17T11:33:24.327Z,47.40
2017-08-17T11:35:51.779Z,48.00
2017-08-17T11:38:19.080Z,47.50
2017-08-17T11:40:46.267Z,47.50
2017-08-17T11:43:14.335Z,46.40
2017-08-17T11:45:41.904Z,45.60
2017-08-17T11:48:08.481Z,45.60
2017-08-17T11:50:34.872Z,45.50
2017-08-17T11:53:01.777Z,46.60
2017-08-17T11:55:28.069Z,45.90
2017-08-17T11:57:54.758Z,44.60
2017-08-17T12:00:22.781Z,44.30
2017-08-17T12:02:49.102Z,44.20
2017-08-17T12:05:15.398Z,44.60
2017-08-17T12:07:42.560Z,45.90
2017-08-17T12:10:09.661Z,46.00
2017-08-17T12:12:35.962Z,45.90
2017-08-17T12:15:02.788Z,44.40
2017-08-17T12:17:30.479Z,44.80
2017-08-17T12:19:56.786Z,43.90
2017-08-17T12:22:23.749Z,44.00
2017-08-17T12:24:50.029Z,42.70
2017-08-17T12:27:17.060Z,43.60
2017-08-17T12:29:43.314Z,44.10
2017-08-17T12:32:11.018Z,45.50
2017-08-17T12:34:38.330Z,45.00
2017-08-17T12:37:34.413Z,45.90
2017-08-17T12:40:01.257Z,44.30
2017-08-17T12:42:28.309Z,45.40
2017-08-17T12:44:55.654Z,45.60
2017-08-17T12:47:22.463Z,45.40
2017-08-17T12:49:50.031Z,45.60
2017-08-17T12:52:16.724Z,45.90
2017-08-17T12:54:42.993Z,45.10
2017-08-17T12:57:10.408Z,44.90
2017-08-17T12:59:37.117Z,45.30
2017-08-17T13:02:04.147Z,45.30
2017-08-17T13:04:30.630Z,46.20
2017-08-17T13:06:56.951Z,46.50
2017-08-17T13:09:23.282Z,46.10
2017-08-17T13:11:50.037Z,44.70
2017-08-17T13:14:18.708Z,45.90
2017-08-17T13:16:45.500Z,45.90
2017-08-17T13:19:13.116Z,47.00
2017-08-17T13:21:40.112Z,45.00
2017-08-17T13:24:06.948Z,45.00
2017-08-17T13:26:34.688Z,46.90
2017-08-17T13:29:02.171Z,45.50
2017-08-17T13:31:29.491Z,45.70
2017-08-17T13:33:57.075Z,46.20
2017-08-17T13:36:23.348Z,46.20
2017-08-17T13:38:50.142Z,46.40
2017-08-17T13:41:16.514Z,45.20
2017-08-17T13:43:43.964Z,45.80
2017-08-17T13:46:11.049Z,45.90
2017-08-17T13:48:38.307Z,45.50
2017-08-17T13:51:05.957Z,45.50
2017-08-17T13:53:32.741Z,45.40
2017-08-17T13:56:00.085Z,44.80
2017-08-17T13:58:26.888Z,45.20
2017-08-17T14:00:53.173Z,45.30
2017-08-17T14:03:20.463Z,45.60
2017-08-17T14:05:46.725Z,45.10
2017-08-17T14:08:13.669Z,44.70
2017-08-17T14:10:41.733Z,44.10
2017-08-17T14:13:08.731Z,44.10
2017-08-17T14:15:35.385Z,44.40
2017-08-17T14:18:01.637Z,42.90
2017-08-17T14:20:28.537Z,44.10
2017-08-17T14:22:54.832Z,44.20
2017-08-17T14:25:21.113Z,43.70
2017-08-17T14:27:48.114Z,43.90
2017-08-17T14:30:15.198Z,44.50
2017-08-17T14:32:41.502Z,44.50
2017-08-17T14:35:08.190Z,43.90
2017-08-17T14:37:35.225Z,45.10
2017-08-17T14:40:02.705Z,45.10
2017-08-17T14:42:30.734Z,45.00
2017-08-17T14:44:57.008Z,45.00
2017-08-17T14:47:24.581Z,45.30
2017-08-17T14:49:50.952Z,45.30
2017-08-17T14:52:17.255Z,44.80
2017-08-17T14:54:43.640Z,44.30
2017-08-17T14:57:09.923Z,45.00
2017-08-17T14:59:36.798Z,45.90
2017-08-17T15:02:03.849Z,46.00
2017-08-17T15:04:30.954Z,46.00
2017-08-17T15:06:58.675Z,45.80
2017-08-17T15:09:25.519Z,45.80
2017-08-17T15:11:52.563Z,46.60
2017-08-17T15:14:19.187Z,45.30
2017-08-17T15:16:45.511Z,46.20
2017-08-17T15:19:11.789Z,45.70
2017-08-17T15:21:38.052Z,46.10
2017-08-17T15:24:04.369Z,47.00
2017-08-17T15:26:30.803Z,48.20
2017-08-17T15:28:57.553Z,48.90
2017-08-17T15:31:23.831Z,48.40
2017-08-17T15:33:50.165Z,49.10
2017-08-17T15:36:17.821Z,49.10
2017-08-17T15:38:44.079Z,49.00
2017-08-17T15:41:10.853Z,49.20
2017-08-17T15:43:44.941Z,49.80
2017-08-17T15:46:11.343Z,49.60
2017-08-17T15:48:38.710Z,49.90
2017-08-17T15:51:05.970Z,49.90
2017-08-17T15:53:32.317Z,48.30
2017-08-17T15:55:59.567Z,50.50
2017-08-17T15:58:26.010Z,51.00
2017-08-17T16:00:52.312Z,50.80
2017-08-17T16:03:19.185Z,51.10
2017-08-17T16:05:45.491Z,50.40
2017-08-17T16:08:11.762Z,50.10
2017-08-17T16:10:38.077Z,50.50
2017-08-17T16:13:05.355Z,51.60
2017-08-17T16:15:31.980Z,52.40
2017-08-17T16:17:59.058Z,52.50
2017-08-17T16:20:25.844Z,53.10
2017-08-17T16:22:54.303Z,53.10
2017-08-17T16:25:20.536Z,53.10
2017-08-17T16:27:46.829Z,53.50
2017-08-17T16:39:58.944Z,53.90
2017-08-17T16:42:27.118Z,53.80
2017-08-17T16:44:54.810Z,53.70
2017-08-17T16:47:22.680Z,54.30
2017-08-17T16:49:51.326Z,54.00
2017-08-17T16:52:20.046Z,56.40
2017-08-17T16:54:47.712Z,56.90
2017-08-17T16:57:14.565Z,56.60
2017-08-17T17:12:42.132Z,56.90
2017-08-17T17:15:08.775Z,59.30
2017-08-17T17:17:35.435Z,60.20
2017-08-17T17:20:03.580Z,59.40
2017-08-17T17:22:30.573Z,59.80
2017-08-17T17:24:56.847Z,59.70
2017-08-17T17:37:09.577Z,61.40
2017-08-17T17:39:36.334Z,61.40
2017-08-17T17:42:03.842Z,61.50
2017-08-17T17:44:30.929Z,60.90
2017-08-17T17:46:57.297Z,60.00
2017-08-17T17:49:25.365Z,62.20
2017-08-17T17:51:52.524Z,63.00
2017-08-17T17:54:19.861Z,63.50
2017-08-17T17:56:47.956Z,63.00
2017-08-17T17:59:15.025Z,62.90
2017-08-17T18:01:41.934Z,62.80
2017-08-17T18:04:09.306Z,62.40
2017-08-17T18:06:35.594Z,62.40
2017-08-17T18:09:02.479Z,63.70
2017-08-17T18:11:29.703Z,65.00
2017-08-17T18:13:56.329Z,64.90
2017-08-17T18:16:23.662Z,64.30
2017-08-17T18:18:50.051Z,65.20
2017-08-17T18:21:17.600Z,65.70
2017-08-17T18:23:45.265Z,65.50
2017-08-17T18:26:14.658Z,66.20
2017-08-17T18:28:42.628Z,65.90
2017-08-17T18:31:10.794Z,66.40
2017-08-17T18:33:37.708Z,66.40
2017-08-17T18:36:04.043Z,66.10
2017-08-17T18:48:16.017Z,66.50
2017-08-17T18:50:43.781Z,66.00
2017-08-17T18:53:10.496Z,65.90
2017-08-17T18:55:37.563Z,65.90
2017-08-17T18:58:04.010Z,66.50
2017-08-17T19:00:31.395Z,66.00
2017-08-17T19:02:58.672Z,65.70
2017-08-17T19:05:25.793Z,65.30
2017-08-17T19:07:52.984Z,65.00
2017-08-17T19:10:20.215Z,65.60
2017-08-17T19:12:47.397Z,65.70
2017-08-17T19:15:13.700Z,65.90
2017-08-17T19:17:40.000Z,67.20
2017-08-17T19:20:06.822Z,66.40
2017-08-17T19:22:33.603Z,66.60
2017-08-17T19:25:00.076Z,66.50
2017-08-17T19:27:29.418Z,66.30
2017-08-17T19:29:55.717Z,66.10
2017-08-17T19:32:22.022Z,64.80
2017-08-17T19:34:48.440Z,65.70
2017-08-17T19:37:15.140Z,65.70
2017-08-17T19:55:57.439Z,67.30
2017-08-17T19:58:24.656Z,67.30
2017-08-17T20:10:36.170Z,67.70
2017-08-17T20:13:03.539Z,67.10
2017-08-17T20:15:31.147Z,66.90
2017-08-17T20:17:58.854Z,67.00
2017-08-17T20:20:26.654Z,68.10
2017-08-17T20:22:53.590Z,68.80
2017-08-17T20:25:20.921Z,69.70
2017-08-17T20:27:47.683Z,70.10
2017-08-17T20:30:14.532Z,70.10
2017-08-17T20:32:40.908Z,69.20
2017-08-17T20:35:08.001Z,69.00
2017-08-17T20:37:34.322Z,68.80
2017-08-17T20:40:01.685Z,69.00
2017-08-17T20:42:27.940Z,68.50
2017-08-17T20:44:54.193Z,69.00
2017-08-17T20:47:22.224Z,68.90
2017-08-17T20:49:50.006Z,68.40
2017-08-17T20:52:17.627Z,68.40
2017-08-17T20:54:44.914Z,68.40
2017-08-17T20:57:12.482Z,68.90
2017-08-17T20:59:38.954Z,68.60
2017-08-17T21:02:05.236Z,67.70
2017-08-17T21:04:31.853Z,67.80
2017-08-17T21:06:59.489Z,69.50
2017-08-17T21:09:26.505Z,69.90
2017-08-17T21:11:55.538Z,69.70
2017-08-17T21:14:21.922Z,69.70
2017-08-17T21:16:49.211Z,68.50
2017-08-17T21:19:16.564Z,68.50
2017-08-17T21:21:43.906Z,68.20
2017-08-17T21:24:13.265Z,68.40
2017-08-17T21:26:39.560Z,68.50
2017-08-17T21:29:06.610Z,68.40
2017-08-17T21:31:33.941Z,69.20
2017-08-17T21:34:00.337Z,69.30
2017-08-17T21:36:28.397Z,70.80
2017-08-17T21:38:54.762Z,70.80
2017-08-17T21:41:21.906Z,69.90
2017-08-17T21:43:48.995Z,69.80
2017-08-17T21:46:15.423Z,69.60
2017-08-17T21:48:41.800Z,70.30
2017-08-17T21:51:08.660Z,70.50
2017-08-17T21:53:35.043Z,71.30
2017-08-17T21:56:01.979Z,71.20
2017-08-17T21:58:28.277Z,71.70
2017-08-17T22:00:54.628Z,71.60
2017-08-17T22:03:21.209Z,70.80
2017-08-17T22:05:49.085Z,70.00
2017-08-17T22:08:16.347Z,70.00
2017-08-17T22:10:42.993Z,69.30
2017-08-17T22:13:09.838Z,69.80
2017-08-17T22:15:36.215Z,69.40
2017-08-17T22:18:03.124Z,71.20
2017-08-17T22:20:29.419Z,71.80
2017-08-17T22:22:56.709Z,72.40
2017-08-17T22:25:23.529Z,71.10
2017-08-17T22:27:51.267Z,71.50
2017-08-17T22:30:17.605Z,71.50
2017-08-17T22:32:44.897Z,71.90
2017-08-17T22:35:11.948Z,70.70
2017-08-17T22:37:39.641Z,71.00
2017-08-17T22:40:05.885Z,70.80
2017-08-17T22:42:32.236Z,71.00
2017-08-17T22:44:58.689Z,70.30
2017-08-17T22:47:26.409Z,71.00
2017-08-17T22:49:53.221Z,71.00
2017-08-17T22:52:20.569Z,71.20
2017-08-17T22:54:46.831Z,71.70
2017-08-17T23:06:58.696Z,71.70
2017-08-17T23:09:25.100Z,72.10
2017-08-17T23:11:51.340Z,72.90
2017-08-17T23:14:17.663Z,74.10
2017-08-17T23:16:43.944Z,73.40
2017-08-17T23:19:10.961Z,72.90
2017-08-17T23:21:37.369Z,73.10
2017-08-17T23:24:04.074Z,73.20
2017-08-17T23:26:30.415Z,72.90
2017-08-17T23:28:56.710Z,72.80
2017-08-17T23:31:23.092Z,72.40
2017-08-17T23:33:49.368Z,72.60
2017-08-17T23:36:17.203Z,72.40
2017-08-17T23:38:43.640Z,72.40
2017-08-17T23:41:10.541Z,71.80
2017-08-17T23:43:37.824Z,71.80
2017-08-17T23:46:04.972Z,73.00
2017-08-17T23:48:31.325Z,72.40
2017-08-17T23:50:57.683Z,72.70
2017-08-17T23:53:25.264Z,72.10
2017-08-17T23:55:51.560Z,72.10
2017-08-17T23:58:17.846Z,72.10
